Time;durP1;ratioP1;P1;durP2;ratioP2;P2;SDS_P1;SDS_P2;PMS_P1;PMS_P2;Temp;Humidity;BMP_temperature;BMP_pressure;BME280_temperature;BME280_humidity;BME280_pressure;Samples;Min_cycle;Max_cycle;Signal;HPM_P1;HPM_P2
2021/11/10 00:02:10;;;;;;;;;8.75;7.75;;;;;;;;5042703;27;113433;-77
2021/11/10 00:04:36;;;;;;;;;7.00;7.00;;;;;;;;5043501;27;112258;-78
2021/11/10 00:07:01;;;;;;;;;6.50;6.00;;;;;;;;5042301;27;112371;-78
2021/11/10 00:09:26;;;;;;;;;4.00;4.00;;;;;;;;5042138;27;112229;-78
2021/11/10 00:11:53;;;;;;;;;6.00;4.00;;;;;;;;5043660;27;112229;-78
2021/11/10 00:14:18;;;;;;;;;5.50;4.50;;;;;;;;5045676;27;112861;-78
2021/11/10 00:16:43;;;;;;;;;5.00;5.00;;;;;;;;5043438;27;112199;-77
2021/11/10 00:19:09;;;;;;;;;5.75;3.25;;;;;;;;5041933;27;112750;-78
2021/11/10 00:21:34;;;;;;;;;3.00;3.00;;;;;;;;5042608;27;112121;-77
2021/11/10 00:24:01;;;;;;;;;3.00;3.00;;;;;;;;5042705;27;112871;-78
2021/11/10 00:26:27;;;;;;;;;2.25;2.25;;;;;;;;5042203;27;112440;-79
2021/11/10 00:28:52;;;;;;;;;3.00;3.00;;;;;;;;5042896;27;112267;-78
2021/11/10 00:31:18;;;;;;;;;3.00;3.00;;;;;;;;5043520;27;112111;-78
2021/11/10 00:33:43;;;;;;;;;4.50;4.00;;;;;;;;5041747;27;112490;-79
2021/11/10 00:36:09;;;;;;;;;3.25;3.00;;;;;;;;5028172;27;112028;-80
2021/11/10 00:38:35;;;;;;;;;3.75;3.00;;;;;;;;5041770;27;112554;-78
2021/11/10 00:41:00;;;;;;;;;2.25;2.25;;;;;;;;5042924;27;111976;-79
2021/11/10 00:43:25;;;;;;;;;3.25;2.00;;;;;;;;5043170;27;111944;-78
2021/11/10 00:45:51;;;;;;;;;2.00;2.00;;;;;;;;5041411;27;112572;-79
2021/11/10 00:48:16;;;;;;;;;3.75;2.25;;;;;;;;5042692;27;111856;-78
2021/11/10 00:50:41;;;;;;;;;3.00;2.00;;;;;;;;5042485;27;112205;-78
2021/11/10 00:53:07;;;;;;;;;2.25;2.25;;;;;;;;5041371;27;112319;-78
2021/11/10 00:55:34;;;;;;;;;5.75;3.00;;;;;;;;5042333;27;111848;-77
2021/11/10 00:57:59;;;;;;;;;2.00;2.00;;;;;;;;5044210;27;112958;-80
2021/11/10 01:00:25;;;;;;;;;4.50;4.00;;;;;;;;5042229;27;111870;-85
2021/11/10 01:02:50;;;;;;;;;4.00;3.00;;;;;;;;5042814;27;113220;-86
2021/11/10 01:05:16;;;;;;;;;2.00;2.00;;;;;;;;5041611;27;113636;-84
2021/11/10 01:07:42;;;;;;;;;2.75;2.75;;;;;;;;5042586;27;111769;-85
2021/11/10 01:10:08;;;;;;;;;3.00;2.75;;;;;;;;5023658;27;112831;-85
2021/11/10 01:12:33;;;;;;;;;3.00;3.00;;;;;;;;5040924;27;112654;-84
2021/11/10 01:14:59;;;;;;;;;2.00;2.00;;;;;;;;5041913;27;111921;-84
2021/11/10 01:17:24;;;;;;;;;2.25;2.25;;;;;;;;5041682;27;113435;-84
2021/11/10 01:19:50;;;;;;;;;3.75;3.50;;;;;;;;5043929;27;112433;-84
2021/11/10 01:22:16;;;;;;;;;7.00;3.00;;;;;;;;5042112;27;112425;-83
2021/11/10 01:24:41;;;;;;;;;5.75;3.00;;;;;;;;5041088;27;112534;-82
2021/11/10 01:27:07;;;;;;;;;3.75;2.50;;;;;;;;5042054;27;112179;-83
2021/11/10 01:29:32;;;;;;;;;4.50;3.00;;;;;;;;5042697;27;112298;-83
2021/11/10 01:31:58;;;;;;;;;3.75;3.00;;;;;;;;5040584;27;112723;-83
2021/11/10 01:34:23;;;;;;;;;3.00;2.00;;;;;;;;5041927;27;112353;-83
2021/11/10 01:36:48;;;;;;;;;3.75;3.75;;;;;;;;5041467;27;112087;-84
2021/11/10 01:39:14;;;;;;;;;3.00;3.00;;;;;;;;5036819;27;112638;-85
2021/11/10 01:41:47;;;;;;;;;5.00;3.75;;;;;;;;5045578;27;111916;-84
2021/11/10 01:44:13;;;;;;;;;6.75;3.00;;;;;;;;5021928;27;113804;-84
2021/11/10 01:46:38;;;;;;;;;3.25;3.25;;;;;;;;5038163;27;112156;-85
2021/11/10 01:49:04;;;;;;;;;3.00;3.00;;;;;;;;5040642;27;112737;-83
2021/11/10 01:51:29;;;;;;;;;4.00;4.00;;;;;;;;5039847;27;112564;-83
